sensor_id;sensor_type;location;lat;lon;timestamp;P1;durP1;ratioP1;P2;durP2;ratioP2
67717;SDS011;54511;47.532;19.180;2022-09-03T00:02:06;6.25;;;3.12;;
67717;SDS011;54511;47.532;19.180;2022-09-03T00:05:34;7.10;;;3.42;;
67717;SDS011;54511;47.532;19.180;2022-09-03T00:09:02;7.25;;;3.70;;
67717;SDS011;54511;47.532;19.180;2022-09-03T00:12:32;8.70;;;3.70;;
67717;SDS011;54511;47.532;19.180;2022-09-03T00:15:38;7.00;;;3.47;;
67717;SDS011;54511;47.532;19.180;2022-09-03T00:18:46;7.80;;;4.30;;
67717;SDS011;54511;47.532;19.180;2022-09-03T00:21:53;11.93;;;3.95;;
67717;SDS011;54511;47.532;19.180;2022-09-03T00:25:20;9.70;;;3.92;;
67717;SDS011;54511;47.532;19.180;2022-09-03T00:28:49;8.38;;;3.80;;
67717;SDS011;54511;47.532;19.180;2022-09-03T00:32:16;9.57;;;3.87;;
67717;SDS011;54511;47.532;19.180;2022-09-03T00:35:24;7.80;;;3.78;;
67717;SDS011;54511;47.532;19.180;2022-09-03T00:38:51;6.60;;;3.67;;
67717;SDS011;54511;47.532;19.180;2022-09-03T00:42:21;7.18;;;3.92;;
67717;SDS011;54511;47.532;19.180;2022-09-03T00:45:50;7.93;;;3.90;;
67717;SDS011;54511;47.532;19.180;2022-09-03T00:49:20;9.02;;;3.90;;
67717;SDS011;54511;47.532;19.180;2022-09-03T00:52:50;10.02;;;4.00;;
67717;SDS011;54511;47.532;19.180;2022-09-03T00:56:19;7.82;;;4.15;;
67717;SDS011;54511;47.532;19.180;2022-09-03T00:59:46;8.95;;;3.67;;
67717;SDS011;54511;47.532;19.180;2022-09-03T01:03:15;9.50;;;3.72;;
67717;SDS011;54511;47.532;19.180;2022-09-03T01:06:42;9.32;;;4.10;;
67717;SDS011;54511;47.532;19.180;2022-09-03T01:10:13;7.22;;;3.35;;
67717;SDS011;54511;47.532;19.180;2022-09-03T01:13:40;6.70;;;3.50;;
67717;SDS011;54511;47.532;19.180;2022-09-03T01:17:09;7.53;;;3.30;;
67717;SDS011;54511;47.532;19.180;2022-09-03T01:20:40;10.38;;;3.58;;
67717;SDS011;54511;47.532;19.180;2022-09-03T01:24:17;7.22;;;3.62;;
67717;SDS011;54511;47.532;19.180;2022-09-03T01:27:59;5.65;;;3.60;;
67717;SDS011;54511;47.532;19.180;2022-09-03T01:31:30;9.07;;;3.60;;
67717;SDS011;54511;47.532;19.180;2022-09-03T01:34:57;8.15;;;3.60;;
67717;SDS011;54511;47.532;19.180;2022-09-03T01:38:25;7.55;;;4.05;;
67717;SDS011;54511;47.532;19.180;2022-09-03T01:41:53;7.53;;;3.62;;
67717;SDS011;54511;47.532;19.180;2022-09-03T01:45:28;7.22;;;4.32;;
67717;SDS011;54511;47.532;19.180;2022-09-03T01:48:59;7.78;;;4.20;;
67717;SDS011;54511;47.532;19.180;2022-09-03T01:52:26;7.12;;;3.60;;
67717;SDS011;54511;47.532;19.180;2022-09-03T01:55:55;8.55;;;3.78;;
67717;SDS011;54511;47.532;19.180;2022-09-03T01:59:28;6.25;;;3.72;;
67717;SDS011;54511;47.532;19.180;2022-09-03T02:02:59;8.02;;;3.80;;
67717;SDS011;54511;47.532;19.180;2022-09-03T02:06:03;8.30;;;4.03;;
67717;SDS011;54511;47.532;19.180;2022-09-03T02:09:30;8.70;;;3.90;;
67717;SDS011;54511;47.532;19.180;2022-09-03T02:12:17;5.70;;;3.60;;
67717;SDS011;54511;47.532;19.180;2022-09-03T02:15:06;8.95;;;4.00;;
67717;SDS011;54511;47.532;19.180;2022-09-03T02:18:16;8.68;;;4.00;;
67717;SDS011;54511;47.532;19.180;2022-09-03T02:21:26;6.68;;;3.85;;
67717;SDS011;54511;47.532;19.180;2022-09-03T02:24:52;8.68;;;3.65;;
67717;SDS011;54511;47.532;19.180;2022-09-03T02:27:59;10.80;;;4.10;;
67717;SDS011;54511;47.532;19.180;2022-09-03T02:31:06;7.28;;;3.90;;
67717;SDS011;54511;47.532;19.180;2022-09-03T02:33:55;9.38;;;4.03;;
67717;SDS011;54511;47.532;19.180;2022-09-03T02:37:10;11.57;;;4.00;;
67717;SDS011;54511;47.532;19.180;2022-09-03T02:40:29;6.78;;;3.80;;
67717;SDS011;54511;47.532;19.180;2022-09-03T02:43:17;8.70;;;3.75;;
67717;SDS011;54511;47.532;19.180;2022-09-03T02:46:28;7.12;;;3.50;;
67717;SDS011;54511;47.532;19.180;2022-09-03T02:49:56;8.38;;;3.40;;
67717;SDS011;54511;47.532;19.180;2022-09-03T02:53:03;7.50;;;3.53;;
67717;SDS011;54511;47.532;19.180;2022-09-03T02:56:10;7.85;;;3.72;;
67717;SDS011;54511;47.532;19.180;2022-09-03T02:59:38;7.32;;;3.53;;
67717;SDS011;54511;47.532;19.180;2022-09-03T03:02:45;7.82;;;3.85;;
67717;SDS011;54511;47.532;19.180;2022-09-03T03:05:39;7.37;;;3.62;;
67717;SDS011;54511;47.532;19.180;2022-09-03T03:09:03;6.82;;;3.47;;
67717;SDS011;54511;47.532;19.180;2022-09-03T03:11:50;7.32;;;3.78;;
67717;SDS011;54511;47.532;19.180;2022-09-03T03:14:37;8.32;;;3.60;;
67717;SDS011;54511;47.532;19.180;2022-09-03T03:17:24;8.65;;;3.80;;
67717;SDS011;54511;47.532;19.180;2022-09-03T03:20:11;7.68;;;3.58;;
67717;SDS011;54511;47.532;19.180;2022-09-03T03:23:01;7.12;;;3.72;;
67717;SDS011;54511;47.532;19.180;2022-09-03T03:26:09;8.77;;;4.00;;
67717;SDS011;54511;47.532;19.180;2022-09-03T03:29:15;6.85;;;3.85;;
67717;SDS011;54511;47.532;19.180;2022-09-03T03:32:22;7.03;;;3.90;;
67717;SDS011;54511;47.532;19.180;2022-09-03T03:35:10;11.52;;;3.67;;
67717;SDS011;54511;47.532;19.180;2022-09-03T03:37:58;6.25;;;3.58;;
67717;SDS011;54511;47.532;19.180;2022-09-03T03:41:21;7.20;;;3.60;;
67717;SDS011;54511;47.532;19.180;2022-09-03T03:44:27;8.88;;;3.75;;
67717;SDS011;54511;47.532;19.180;2022-09-03T03:47:24;6.68;;;3.50;;
67717;SDS011;54511;47.532;19.180;2022-09-03T03:50:11;6.93;;;3.30;;
67717;SDS011;54511;47.532;19.180;2022-09-03T03:52:42;8.60;;;4.10;;
67717;SDS011;54511;47.532;19.180;2022-09-03T03:55:57;6.95;;;3.95;;
67717;SDS011;54511;47.532;19.180;2022-09-03T03:59:04;6.25;;;3.62;;
67717;SDS011;54511;47.532;19.180;2022-09-03T04:01:54;7.05;;;4.18;;
67717;SDS011;54511;47.532;19.180;2022-09-03T04:04:23;8.02;;;3.92;;
67717;SDS011;54511;47.532;19.180;2022-09-03T04:06:50;6.25;;;3.45;;
67717;SDS011;54511;47.532;19.180;2022-09-03T04:09:37;7.50;;;4.05;;
67717;SDS011;54511;47.532;19.180;2022-09-03T04:12:26;9.48;;;3.87;;
67717;SDS011;54511;47.532;19.180;2022-09-03T04:15:22;8.27;;;4.05;;
67717;SDS011;54511;47.532;19.180;2022-09-03T04:18:01;7.25;;;3.92;;
67717;SDS011;54511;47.532;19.180;2022-09-03T04:20:28;16.02;;;4.22;;
67717;SDS011;54511;47.532;19.180;2022-09-03T04:23:15;7.87;;;3.90;;
67717;SDS011;54511;47.532;19.180;2022-09-03T04:26:02;8.10;;;4.03;;
67717;SDS011;54511;47.532;19.180;2022-09-03T04:29:11;12.45;;;4.50;;
67717;SDS011;54511;47.532;19.180;2022-09-03T04:32:18;7.97;;;3.87;;
67717;SDS011;54511;47.532;19.180;2022-09-03T04:35:23;10.75;;;4.30;;
67717;SDS011;54511;47.532;19.180;2022-09-03T04:38:30;7.15;;;3.47;;
67717;SDS011;54511;47.532;19.180;2022-09-03T04:41:47;7.82;;;4.03;;
67717;SDS011;54511;47.532;19.180;2022-09-03T04:44:16;8.40;;;4.25;;
67717;SDS011;54511;47.532;19.180;2022-09-03T04:46:48;8.15;;;4.05;;
67717;SDS011;54511;47.532;19.180;2022-09-03T04:49:20;8.35;;;4.12;;
67717;SDS011;54511;47.532;19.180;2022-09-03T04:51:51;6.60;;;3.85;;
67717;SDS011;54511;47.532;19.180;2022-09-03T04:54:35;9.55;;;4.15;;
67717;SDS011;54511;47.532;19.180;2022-09-03T04:57:23;9.05;;;4.12;;
67717;SDS011;54511;47.532;19.180;2022-09-03T04:59:52;9.45;;;4.30;;
67717;SDS011;54511;47.532;19.180;2022-09-03T05:03:00;8.32;;;4.57;;
67717;SDS011;54511;47.532;19.180;2022-09-03T05:05:51;7.53;;;4.12;;
67717;SDS011;54511;47.532;19.180;2022-09-03T05:08:38;11.30;;;4.72;;
67717;SDS011;54511;47.532;19.180;2022-09-03T05:11:45;7.72;;;3.80;;
67717;SDS011;54511;47.532;19.180;2022-09-03T05:48:15;12.90;;;5.57;;
67717;SDS011;54511;47.532;19.180;2022-09-03T05:51:23;10.40;;;5.18;;
67717;SDS011;54511;47.532;19.180;2022-09-03T05:57:55;8.60;;;4.75;;
67717;SDS011;54511;47.532;19.180;2022-09-03T06:00:54;9.10;;;4.60;;
67717;SDS011;54511;47.532;19.180;2022-09-03T06:03:37;8.23;;;4.70;;
67717;SDS011;54511;47.532;19.180;2022-09-03T06:07:04;9.35;;;5.22;;
67717;SDS011;54511;47.532;19.180;2022-09-03T06:10:06;8.87;;;5.17;;
67717;SDS011;54511;47.532;19.180;2022-09-03T06:13:13;11.88;;;5.20;;
67717;SDS011;54511;47.532;19.180;2022-09-03T06:16:44;7.72;;;4.53;;
67717;SDS011;54511;47.532;19.180;2022-09-03T06:23:56;8.18;;;4.68;;
67717;SDS011;54511;47.532;19.180;2022-09-03T06:37:57;10.60;;;4.87;;
67717;SDS011;54511;47.532;19.180;2022-09-03T06:41:43;14.65;;;4.90;;
67717;SDS011;54511;47.532;19.180;2022-09-03T06:45:05;8.82;;;4.28;;
67717;SDS011;54511;47.532;19.180;2022-09-03T06:47:56;6.75;;;4.00;;
67717;SDS011;54511;47.532;19.180;2022-09-03T06:50:43;7.47;;;4.37;;
67717;SDS011;54511;47.532;19.180;2022-09-03T06:53:59;8.77;;;4.37;;
67717;SDS011;54511;47.532;19.180;2022-09-03T06:57:07;8.95;;;4.50;;
67717;SDS011;54511;47.532;19.180;2022-09-03T07:00:15;9.00;;;4.00;;
67717;SDS011;54511;47.532;19.180;2022-09-03T07:03:22;9.38;;;4.62;;
67717;SDS011;54511;47.532;19.180;2022-09-03T07:06:10;9.70;;;5.15;;
67717;SDS011;54511;47.532;19.180;2022-09-03T07:09:36;11.35;;;5.40;;
67717;SDS011;54511;47.532;19.180;2022-09-03T07:12:25;10.43;;;4.72;;
67717;SDS011;54511;47.532;19.180;2022-09-03T07:15:32;13.45;;;5.57;;
67717;SDS011;54511;47.532;19.180;2022-09-03T07:19:05;11.23;;;5.30;;
67717;SDS011;54511;47.532;19.180;2022-09-03T07:22:12;9.55;;;4.80;;
67717;SDS011;54511;47.532;19.180;2022-09-03T07:25:11;11.10;;;4.78;;
67717;SDS011;54511;47.532;19.180;2022-09-03T07:27:59;8.43;;;4.32;;
67717;SDS011;54511;47.532;19.180;2022-09-03T07:30:47;8.40;;;4.75;;
67717;SDS011;54511;47.532;19.180;2022-09-03T07:33:14;10.38;;;4.87;;
67717;SDS011;54511;47.532;19.180;2022-09-03T07:35:46;8.20;;;4.28;;
67717;SDS011;54511;47.532;19.180;2022-09-03T07:38:34;10.70;;;5.65;;
67717;SDS011;54511;47.532;19.180;2022-09-03T07:42:03;8.65;;;4.78;;
67717;SDS011;54511;47.532;19.180;2022-09-03T07:44:52;9.25;;;4.18;;
67717;SDS011;54511;47.532;19.180;2022-09-03T07:48:19;9.30;;;4.43;;
67717;SDS011;54511;47.532;19.180;2022-09-03T07:51:06;8.05;;;4.37;;
67717;SDS011;54511;47.532;19.180;2022-09-03T07:54:33;10.35;;;4.65;;
67717;SDS011;54511;47.532;19.180;2022-09-03T07:57:20;11.70;;;4.60;;
67717;SDS011;54511;47.532;19.180;2022-09-03T08:00:10;10.25;;;4.40;;
67717;SDS011;54511;47.532;19.180;2022-09-03T08:03:17;9.50;;;4.90;;
67717;SDS011;54511;47.532;19.180;2022-09-03T08:06:05;9.68;;;4.93;;
67717;SDS011;54511;47.532;19.180;2022-09-03T08:09:35;10.80;;;4.72;;
67717;SDS011;54511;47.532;19.180;2022-09-03T08:15:39;6.85;;;4.05;;
67717;SDS011;54511;47.532;19.180;2022-09-03T08:19:16;9.13;;;4.00;;
67717;SDS011;54511;47.532;19.180;2022-09-03T08:22:25;9.50;;;4.25;;
67717;SDS011;54511;47.532;19.180;2022-09-03T08:25:32;7.05;;;3.70;;
67717;SDS011;54511;47.532;19.180;2022-09-03T08:28:19;8.18;;;3.75;;
67717;SDS011;54511;47.532;19.180;2022-09-03T08:31:09;7.57;;;3.60;;
67717;SDS011;54511;47.532;19.180;2022-09-03T08:34:16;7.25;;;3.30;;
67717;SDS011;54511;47.532;19.180;2022-09-03T08:37:47;6.82;;;3.30;;
67717;SDS011;54511;47.532;19.180;2022-09-03T08:41:01;6.50;;;3.92;;
67717;SDS011;54511;47.532;19.180;2022-09-03T08:44:29;9.57;;;3.40;;
67717;SDS011;54511;47.532;19.180;2022-09-03T08:47:58;6.70;;;3.12;;
67717;SDS011;54511;47.532;19.180;2022-09-03T08:51:11;5.60;;;3.10;;
67717;SDS011;54511;47.532;19.180;2022-09-03T08:54:18;5.93;;;2.90;;
67717;SDS011;54511;47.532;19.180;2022-09-03T08:57:28;6.80;;;3.00;;
67717;SDS011;54511;47.532;19.180;2022-09-03T09:00:58;6.60;;;3.08;;
67717;SDS011;54511;47.532;19.180;2022-09-03T09:04:46;5.62;;;3.12;;
67717;SDS011;54511;47.532;19.180;2022-09-03T09:08:15;7.32;;;3.28;;
67717;SDS011;54511;47.532;19.180;2022-09-03T09:11:45;6.47;;;2.95;;
67717;SDS011;54511;47.532;19.180;2022-09-03T09:15:17;5.85;;;2.65;;
67717;SDS011;54511;47.532;19.180;2022-09-03T09:18:55;6.18;;;3.12;;
67717;SDS011;54511;47.532;19.180;2022-09-03T09:22:24;6.37;;;3.10;;
67717;SDS011;54511;47.532;19.180;2022-09-03T09:25:58;6.72;;;3.87;;
67717;SDS011;54511;47.532;19.180;2022-09-03T09:29:31;9.38;;;4.10;;
67717;SDS011;54511;47.532;19.180;2022-09-03T09:32:58;7.22;;;3.95;;
67717;SDS011;54511;47.532;19.180;2022-09-03T09:35:47;7.10;;;3.80;;
67717;SDS011;54511;47.532;19.180;2022-09-03T09:39:16;9.40;;;4.00;;
67717;SDS011;54511;47.532;19.180;2022-09-03T09:42:23;9.18;;;4.18;;
67717;SDS011;54511;47.532;19.180;2022-09-03T09:45:30;9.43;;;4.37;;
67717;SDS011;54511;47.532;19.180;2022-09-03T09:48:38;11.10;;;4.30;;
67717;SDS011;54511;47.532;19.180;2022-09-03T09:51:58;7.05;;;4.07;;
67717;SDS011;54511;47.532;19.180;2022-09-03T09:54:44;6.37;;;3.60;;
67717;SDS011;54511;47.532;19.180;2022-09-03T09:57:13;6.05;;;3.92;;
67717;SDS011;54511;47.532;19.180;2022-09-03T09:59:42;8.80;;;4.07;;
67717;SDS011;54511;47.532;19.180;2022-09-03T10:02:11;6.87;;;3.85;;
67717;SDS011;54511;47.532;19.180;2022-09-03T10:04:39;8.65;;;3.80;;
67717;SDS011;54511;47.532;19.180;2022-09-03T10:07:20;7.62;;;3.47;;
67717;SDS011;54511;47.532;19.180;2022-09-03T10:10:13;6.25;;;3.80;;
67717;SDS011;54511;47.532;19.180;2022-09-03T10:13:18;6.28;;;3.60;;
67717;SDS011;54511;47.532;19.180;2022-09-03T10:15:54;6.35;;;3.20;;
67717;SDS011;54511;47.532;19.180;2022-09-03T10:19:16;5.53;;;3.40;;
67717;SDS011;54511;47.532;19.180;2022-09-03T10:24:46;7.05;;;3.35;;
67717;SDS011;54511;47.532;19.180;2022-09-03T10:28:05;6.78;;;3.22;;
67717;SDS011;54511;47.532;19.180;2022-09-03T10:30:38;8.30;;;3.30;;
67717;SDS011;54511;47.532;19.180;2022-09-03T10:33:16;6.90;;;3.00;;
67717;SDS011;54511;47.532;19.180;2022-09-03T10:35:51;7.47;;;3.35;;
67717;SDS011;54511;47.532;19.180;2022-09-03T10:38:21;7.28;;;3.05;;
67717;SDS011;54511;47.532;19.180;2022-09-03T10:41:05;5.50;;;2.80;;
67717;SDS011;54511;47.532;19.180;2022-09-03T10:46:34;7.25;;;3.30;;
67717;SDS011;54511;47.532;19.180;2022-09-03T10:49:13;4.80;;;2.83;;
67717;SDS011;54511;47.532;19.180;2022-09-03T10:52:05;3.97;;;2.70;;
67717;SDS011;54511;47.532;19.180;2022-09-03T10:54:46;4.65;;;2.70;;
67717;SDS011;54511;47.532;19.180;2022-09-03T10:57:37;5.07;;;2.90;;
67717;SDS011;54511;47.532;19.180;2022-09-03T11:00:09;5.87;;;3.03;;
67717;SDS011;54511;47.532;19.180;2022-09-03T11:03:23;5.62;;;2.65;;
67717;SDS011;54511;47.532;19.180;2022-09-03T11:06:50;3.30;;;2.58;;
67717;SDS011;54511;47.532;19.180;2022-09-03T11:10:00;5.60;;;3.12;;
67717;SDS011;54511;47.532;19.180;2022-09-03T11:13:31;4.65;;;2.72;;
67717;SDS011;54511;47.532;19.180;2022-09-03T11:16:58;5.50;;;2.80;;
67717;SDS011;54511;47.532;19.180;2022-09-03T11:19:31;6.43;;;2.67;;
67717;SDS011;54511;47.532;19.180;2022-09-03T11:22:58;4.03;;;2.42;;
67717;SDS011;54511;47.532;19.180;2022-09-03T11:26:05;3.70;;;2.25;;
67717;SDS011;54511;47.532;19.180;2022-09-03T11:28:53;5.60;;;2.60;;
67717;SDS011;54511;47.532;19.180;2022-09-03T11:32:04;3.17;;;2.30;;
67717;SDS011;54511;47.532;19.180;2022-09-03T11:37:22;4.90;;;2.60;;
67717;SDS011;54511;47.532;19.180;2022-09-03T11:40:57;2.78;;;2.08;;
67717;SDS011;54511;47.532;19.180;2022-09-03T11:43:27;3.62;;;2.10;;
67717;SDS011;54511;47.532;19.180;2022-09-03T11:46:04;3.05;;;2.20;;
67717;SDS011;54511;47.532;19.180;2022-09-03T11:48:36;3.22;;;2.10;;
67717;SDS011;54511;47.532;19.180;2022-09-03T11:51:16;8.20;;;2.60;;
67717;SDS011;54511;47.532;19.180;2022-09-03T11:53:52;4.90;;;2.60;;
67717;SDS011;54511;47.532;19.180;2022-09-03T11:56:20;3.97;;;2.50;;
67717;SDS011;54511;47.532;19.180;2022-09-03T11:58:56;3.12;;;2.33;;
67717;SDS011;54511;47.532;19.180;2022-09-03T12:01:27;6.90;;;2.92;;
67717;SDS011;54511;47.532;19.180;2022-09-03T12:03:56;5.00;;;2.28;;
67717;SDS011;54511;47.532;19.180;2022-09-03T12:12:28;3.97;;;2.40;;
67717;SDS011;54511;47.532;19.180;2022-09-03T12:15:03;3.67;;;2.40;;
67717;SDS011;54511;47.532;19.180;2022-09-03T12:17:35;4.43;;;2.70;;
67717;SDS011;54511;47.532;19.180;2022-09-03T12:20:10;5.10;;;2.20;;
67717;SDS011;54511;47.532;19.180;2022-09-03T12:22:38;4.03;;;2.20;;
67717;SDS011;54511;47.532;19.180;2022-09-03T12:25:08;4.65;;;2.20;;
67717;SDS011;54511;47.532;19.180;2022-09-03T12:30:03;3.03;;;1.98;;
67717;SDS011;54511;47.532;19.180;2022-09-03T12:32:32;4.85;;;1.87;;
67717;SDS011;54511;47.532;19.180;2022-09-03T12:35:10;2.70;;;2.10;;
67717;SDS011;54511;47.532;19.180;2022-09-03T12:37:40;3.05;;;2.10;;
67717;SDS011;54511;47.532;19.180;2022-09-03T12:40:15;5.18;;;1.95;;
67717;SDS011;54511;47.532;19.180;2022-09-03T12:42:45;2.75;;;2.08;;
67717;SDS011;54511;47.532;19.180;2022-09-03T12:45:12;3.37;;;1.90;;
67717;SDS011;54511;47.532;19.180;2022-09-03T12:47:41;5.70;;;2.15;;
67717;SDS011;54511;47.532;19.180;2022-09-03T12:50:12;3.80;;;1.95;;
67717;SDS011;54511;47.532;19.180;2022-09-03T12:52:40;4.10;;;2.00;;
67717;SDS011;54511;47.532;19.180;2022-09-03T12:55:13;4.43;;;2.12;;
67717;SDS011;54511;47.532;19.180;2022-09-03T12:57:54;3.80;;;2.20;;
67717;SDS011;54511;47.532;19.180;2022-09-03T13:00:25;4.32;;;2.00;;
67717;SDS011;54511;47.532;19.180;2022-09-03T13:02:55;4.93;;;2.22;;
67717;SDS011;54511;47.532;19.180;2022-09-03T13:07:55;4.15;;;2.30;;
67717;SDS011;54511;47.532;19.180;2022-09-03T13:10:25;5.12;;;2.60;;
67717;SDS011;54511;47.532;19.180;2022-09-03T13:12:57;3.50;;;2.25;;
67717;SDS011;54511;47.532;19.180;2022-09-03T13:15:26;4.45;;;2.28;;
67717;SDS011;54511;47.532;19.180;2022-09-03T13:20:45;4.30;;;2.45;;
67717;SDS011;54511;47.532;19.180;2022-09-03T13:23:25;3.92;;;2.28;;
67717;SDS011;54511;47.532;19.180;2022-09-03T13:26:00;4.78;;;2.42;;
67717;SDS011;54511;47.532;19.180;2022-09-03T13:28:36;2.87;;;2.30;;
67717;SDS011;54511;47.532;19.180;2022-09-03T13:31:17;2.70;;;2.05;;
67717;SDS011;54511;47.532;19.180;2022-09-03T13:36:20;3.00;;;2.28;;
67717;SDS011;54511;47.532;19.180;2022-09-03T13:38:52;5.53;;;2.28;;
67717;SDS011;54511;47.532;19.180;2022-09-03T13:41:27;3.42;;;2.30;;
67717;SDS011;54511;47.532;19.180;2022-09-03T13:44:01;5.47;;;2.60;;
67717;SDS011;54511;47.532;19.180;2022-09-03T13:46:33;4.55;;;2.37;;
67717;SDS011;54511;47.532;19.180;2022-09-03T13:49:08;4.47;;;2.72;;
67717;SDS011;54511;47.532;19.180;2022-09-03T13:52:02;4.12;;;2.22;;
67717;SDS011;54511;47.532;19.180;2022-09-03T13:54:33;4.90;;;2.30;;
67717;SDS011;54511;47.532;19.180;2022-09-03T13:57:03;4.32;;;2.20;;
67717;SDS011;54511;47.532;19.180;2022-09-03T13:59:34;5.90;;;2.53;;
67717;SDS011;54511;47.532;19.180;2022-09-03T14:04:58;2.90;;;2.05;;
67717;SDS011;54511;47.532;19.180;2022-09-03T14:07:41;3.65;;;2.12;;
67717;SDS011;54511;47.532;19.180;2022-09-03T14:10:43;6.07;;;2.15;;
67717;SDS011;54511;47.532;19.180;2022-09-03T14:13:27;6.45;;;2.30;;
67717;SDS011;54511;47.532;19.180;2022-09-03T14:16:09;3.45;;;2.20;;
67717;SDS011;54511;47.532;19.180;2022-09-03T14:18:41;3.92;;;2.20;;
67717;SDS011;54511;47.532;19.180;2022-09-03T14:21:17;2.95;;;2.12;;
67717;SDS011;54511;47.532;19.180;2022-09-03T14:23:50;6.45;;;2.30;;
67717;SDS011;54511;47.532;19.180;2022-09-03T14:26:21;3.40;;;2.62;;
67717;SDS011;54511;47.532;19.180;2022-09-03T14:28:57;8.98;;;2.87;;
67717;SDS011;54511;47.532;19.180;2022-09-03T14:31:27;6.70;;;3.10;;
67717;SDS011;54511;47.532;19.180;2022-09-03T14:34:05;3.00;;;2.22;;
67717;SDS011;54511;47.532;19.180;2022-09-03T14:36:37;5.72;;;2.17;;
67717;SDS011;54511;47.532;19.180;2022-09-03T14:39:17;3.42;;;1.98;;
67717;SDS011;54511;47.532;19.180;2022-09-03T14:42:21;4.53;;;2.17;;
67717;SDS011;54511;47.532;19.180;2022-09-03T14:45:29;3.03;;;2.15;;
67717;SDS011;54511;47.532;19.180;2022-09-03T14:48:14;3.85;;;2.15;;
67717;SDS011;54511;47.532;19.180;2022-09-03T14:51:00;3.87;;;2.22;;
67717;SDS011;54511;47.532;19.180;2022-09-03T14:53:41;3.62;;;1.92;;
67717;SDS011;54511;47.532;19.180;2022-09-03T14:56:33;4.65;;;2.35;;
67717;SDS011;54511;47.532;19.180;2022-09-03T14:59:09;4.55;;;2.15;;
67717;SDS011;54511;47.532;19.180;2022-09-03T15:05:03;4.68;;;2.33;;
67717;SDS011;54511;47.532;19.180;2022-09-03T15:07:38;4.68;;;2.10;;
67717;SDS011;54511;47.532;19.180;2022-09-03T15:10:14;3.25;;;2.10;;
67717;SDS011;54511;47.532;19.180;2022-09-03T15:12:49;6.30;;;2.45;;
67717;SDS011;54511;47.532;19.180;2022-09-03T15:15:18;2.55;;;2.00;;
67717;SDS011;54511;47.532;19.180;2022-09-03T15:20:50;8.93;;;2.40;;
67717;SDS011;54511;47.532;19.180;2022-09-03T15:23:47;3.12;;;2.03;;
67717;SDS011;54511;47.532;19.180;2022-09-03T15:31:01;3.37;;;2.03;;
67717;SDS011;54511;47.532;19.180;2022-09-03T15:35:06;3.70;;;2.20;;
67717;SDS011;54511;47.532;19.180;2022-09-03T16:01:05;4.85;;;2.20;;
67717;SDS011;54511;47.532;19.180;2022-09-03T16:04:38;4.37;;;2.12;;
67717;SDS011;54511;47.532;19.180;2022-09-03T16:08:19;3.05;;;2.10;;
67717;SDS011;54511;47.532;19.180;2022-09-03T16:11:51;11.07;;;2.95;;
67717;SDS011;54511;47.532;19.180;2022-09-03T16:15:44;4.90;;;2.10;;
67717;SDS011;54511;47.532;19.180;2022-09-03T16:19:03;2.95;;;2.03;;
67717;SDS011;54511;47.532;19.180;2022-09-03T16:22:28;5.50;;;2.40;;
67717;SDS011;54511;47.532;19.180;2022-09-03T16:26:02;3.65;;;2.30;;
67717;SDS011;54511;47.532;19.180;2022-09-03T16:53:29;5.60;;;2.87;;
67717;SDS011;54511;47.532;19.180;2022-09-03T16:57:10;4.20;;;2.80;;
67717;SDS011;54511;47.532;19.180;2022-09-03T17:00:46;4.97;;;2.60;;
67717;SDS011;54511;47.532;19.180;2022-09-03T17:07:53;7.87;;;4.22;;
67717;SDS011;54511;47.532;19.180;2022-09-03T17:11:32;13.60;;;7.07;;
67717;SDS011;54511;47.532;19.180;2022-09-03T17:15:04;14.30;;;8.50;;
67717;SDS011;54511;47.532;19.180;2022-09-03T17:18:41;13.32;;;8.25;;
67717;SDS011;54511;47.532;19.180;2022-09-03T17:22:14;13.13;;;7.90;;
67717;SDS011;54511;47.532;19.180;2022-09-03T17:25:47;11.35;;;7.03;;
67717;SDS011;54511;47.532;19.180;2022-09-03T17:29:15;10.52;;;5.50;;
67717;SDS011;54511;47.532;19.180;2022-09-03T17:36:58;9.45;;;6.12;;
67717;SDS011;54511;47.532;19.180;2022-09-03T17:40:11;13.32;;;6.95;;
67717;SDS011;54511;47.532;19.180;2022-09-03T17:43:41;11.20;;;6.70;;
67717;SDS011;54511;47.532;19.180;2022-09-03T17:47:26;12.40;;;6.43;;
67717;SDS011;54511;47.532;19.180;2022-09-03T17:50:50;11.80;;;6.43;;
67717;SDS011;54511;47.532;19.180;2022-09-03T17:54:14;10.70;;;5.20;;
67717;SDS011;54511;47.532;19.180;2022-09-03T17:57:24;8.50;;;4.60;;
67717;SDS011;54511;47.532;19.180;2022-09-03T18:00:59;7.80;;;4.62;;
67717;SDS011;54511;47.532;19.180;2022-09-03T18:07:38;9.25;;;3.60;;
67717;SDS011;54511;47.532;19.180;2022-09-03T18:11:05;4.95;;;3.30;;
67717;SDS011;54511;47.532;19.180;2022-09-03T18:14:41;6.53;;;3.15;;
67717;SDS011;54511;47.532;19.180;2022-09-03T18:18:09;5.20;;;2.87;;
67717;SDS011;54511;47.532;19.180;2022-09-03T18:21:39;8.32;;;3.17;;
67717;SDS011;54511;47.532;19.180;2022-09-03T18:25:05;6.80;;;3.00;;
67717;SDS011;54511;47.532;19.180;2022-09-03T18:28:13;6.78;;;3.28;;
67717;SDS011;54511;47.532;19.180;2022-09-03T18:31:38;6.37;;;2.78;;
67717;SDS011;54511;47.532;19.180;2022-09-03T18:34:25;9.43;;;3.22;;
67717;SDS011;54511;47.532;19.180;2022-09-03T18:37:48;5.57;;;2.85;;
67717;SDS011;54511;47.532;19.180;2022-09-03T18:40:55;6.85;;;2.70;;
67717;SDS011;54511;47.532;19.180;2022-09-03T18:44:28;5.55;;;3.00;;
67717;SDS011;54511;47.532;19.180;2022-09-03T18:48:04;6.82;;;2.87;;
67717;SDS011;54511;47.532;19.180;2022-09-03T18:51:30;4.50;;;2.78;;
67717;SDS011;54511;47.532;19.180;2022-09-03T18:54:58;5.15;;;3.00;;
67717;SDS011;54511;47.532;19.180;2022-09-03T18:58:26;6.07;;;3.05;;
67717;SDS011;54511;47.532;19.180;2022-09-03T19:01:51;4.70;;;3.00;;
67717;SDS011;54511;47.532;19.180;2022-09-03T19:05:18;5.97;;;3.20;;
67717;SDS011;54511;47.532;19.180;2022-09-03T19:08:24;7.47;;;3.10;;
67717;SDS011;54511;47.532;19.180;2022-09-03T19:11:33;10.15;;;4.10;;
67717;SDS011;54511;47.532;19.180;2022-09-03T19:15:00;10.75;;;4.80;;
67717;SDS011;54511;47.532;19.180;2022-09-03T19:18:29;8.18;;;4.90;;
67717;SDS011;54511;47.532;19.180;2022-09-03T19:25:11;10.38;;;5.18;;
67717;SDS011;54511;47.532;19.180;2022-09-03T19:28:16;10.30;;;4.93;;
67717;SDS011;54511;47.532;19.180;2022-09-03T19:31:44;15.82;;;6.05;;
67717;SDS011;54511;47.532;19.180;2022-09-03T19:35:11;7.12;;;3.30;;
67717;SDS011;54511;47.532;19.180;2022-09-03T19:38:38;8.10;;;4.53;;
67717;SDS011;54511;47.532;19.180;2022-09-03T19:41:47;8.07;;;4.35;;
67717;SDS011;54511;47.532;19.180;2022-09-03T19:45:11;8.45;;;4.25;;
67717;SDS011;54511;47.532;19.180;2022-09-03T19:48:40;7.20;;;4.03;;
67717;SDS011;54511;47.532;19.180;2022-09-03T20:41:20;12.13;;;4.28;;
67717;SDS011;54511;47.532;19.180;2022-09-03T20:44:52;7.22;;;3.97;;
67717;SDS011;54511;47.532;19.180;2022-09-03T20:48:20;6.55;;;3.97;;
67717;SDS011;54511;47.532;19.180;2022-09-03T20:51:50;7.20;;;3.87;;
67717;SDS011;54511;47.532;19.180;2022-09-03T20:55:17;9.32;;;4.43;;
67717;SDS011;54511;47.532;19.180;2022-09-03T20:58:45;15.05;;;7.18;;
67717;SDS011;54511;47.532;19.180;2022-09-03T21:02:17;41.97;;;14.40;;
67717;SDS011;54511;47.532;19.180;2022-09-03T21:06:01;13.07;;;5.90;;
67717;SDS011;54511;47.532;19.180;2022-09-03T21:09:26;11.05;;;5.90;;
67717;SDS011;54511;47.532;19.180;2022-09-03T21:12:53;9.98;;;5.30;;
67717;SDS011;54511;47.532;19.180;2022-09-03T21:16:17;13.70;;;6.65;;
67717;SDS011;54511;47.532;19.180;2022-09-03T21:19:56;10.85;;;5.12;;
67717;SDS011;54511;47.532;19.180;2022-09-03T21:23:20;9.77;;;5.00;;
67717;SDS011;54511;47.532;19.180;2022-09-03T21:26:53;9.95;;;4.82;;
67717;SDS011;54511;47.532;19.180;2022-09-03T21:30:24;8.68;;;4.50;;
67717;SDS011;54511;47.532;19.180;2022-09-03T21:34:06;8.75;;;4.40;;